logo tempoitalia

Diretta Meteo Palestine, Stati Uniti (USA)lunedì 31 agosto ore 01:35

Mappa
Sereno 27 °C Sereno 24 Ore: T.min 24 T.max 37
Ponente Nord Km/h 5.5 Punto di rugiada: 20 °C Umidità: 65% Visibilità: 10 Km
Il sole sorge alle: 06:57 Il sole tramonta alle: 19:48
31 Agosto 2026 01:35 tempo osservato: Sereno Sereno 27 65 1016 vento: Nord N 5.5
31 Agosto 2026 01:15 tempo osservato: Sereno Sereno 27 65 1015 vento: Nord S 7.4
31 Agosto 2026 00:55 tempo osservato: Sereno Sereno 28 61 1015 vento: Nord S 7.4
31 Agosto 2026 00:35 tempo osservato: Poco Nuvoloso Poco Nuvoloso 28 61 1015 vento: Nord S/SE 9.3
31 Agosto 2026 00:15 tempo osservato: Poco Nuvoloso Poco Nuvoloso 27 65 1015 vento: Nord S/SE 7.4
30 Agosto 2026 23:55 tempo osservato: Nuvoloso Nuvoloso 27 69 1015 vento: Nord N 5.5
30 Agosto 2026 23:35 tempo osservato: Poco Nuvoloso Poco Nuvoloso 26 83 1015 vento: Nord SE 7.4
30 Agosto 2026 23:15 tempo osservato: Sereno Sereno 27 74 1015 vento: Nord N 0
30 Agosto 2026 22:55 tempo osservato: Sereno Sereno 27 74 1014 vento: Nord N 0
30 Agosto 2026 22:35 tempo osservato: Sereno Sereno 27 74 1014 vento: Nord N 0
30 Agosto 2026 22:15 tempo osservato: Sereno Sereno 28 69 1014 vento: Nord N 0
30 Agosto 2026 21:55 tempo osservato: Sereno Sereno 28 69 1014 vento: Nord N 0
30 Agosto 2026 21:35 tempo osservato: Sereno Sereno 28 69 1014 vento: Nord N 0
30 Agosto 2026 21:15 tempo osservato: Poco Nuvoloso Poco Nuvoloso 28 69 1013 vento: Nord N 5.5
30 Agosto 2026 20:55 tempo osservato: Nuvoloso Nuvoloso 29 66 1013 vento: Nord N 0
30 Agosto 2026 20:35 tempo osservato: Poco Nuvoloso Poco Nuvoloso 30 62 1013 vento: Nord N 0
30 Agosto 2026 20:15 tempo osservato: Sereno Sereno 32 46 1013 vento: Nord N 5.5
30 Agosto 2026 19:55 tempo osservato: Sereno Sereno 33 43 1013 vento: Nord N 5.5
30 Agosto 2026 19:35 tempo osservato: Sereno Sereno 34 38 1013 vento: Nord N 0
30 Agosto 2026 19:15 tempo osservato: Sereno Sereno 35 36 1012 vento: Nord N 5.5
30 Agosto 2026 18:55 tempo osservato: Sereno Sereno 35 34 1012 vento: Nord E/SE 7.4
30 Agosto 2026 18:35 tempo osservato: Sereno Sereno 36 32 1013 vento: Nord SE 11.1
30 Agosto 2026 18:15 tempo osservato: Sereno Sereno 37 28 1013 vento: Nord N 0
30 Agosto 2026 17:55 tempo osservato: Sereno Sereno 37 28 1013 vento: Nord SE 9.3
30 Agosto 2026 17:35 tempo osservato: Sereno Sereno 37 28 1013 vento: Nord N 7.4
30 Agosto 2026 17:15 tempo osservato: Sereno Sereno 37 28 1013 vento: Nord N 7.4
30 Agosto 2026 16:55 tempo osservato: Sereno Sereno 37 30 1013 vento: Nord N 7.4
30 Agosto 2026 16:35 tempo osservato: Sereno Sereno 37 30 1013 vento: Nord N 7.4
30 Agosto 2026 16:15 tempo osservato: Sereno Sereno 37 30 1014 vento: Nord S 11.1
30 Agosto 2026 15:55 tempo osservato: Sereno Sereno 37 28 1014 vento: Nord S 13
30 Agosto 2026 15:35 tempo osservato: Sereno Sereno 35 34 1014 vento: Nord N 7.4
30 Agosto 2026 15:15 tempo osservato: Sereno Sereno 36 32 1014 vento: Nord N 7.4
30 Agosto 2026 14:55 tempo osservato: Sereno Sereno 37 30 1015 vento: Nord S/SE 14.8
30 Agosto 2026 14:35 tempo osservato: Sereno Sereno 36 32 1015 vento: Nord N 9.3
30 Agosto 2026 14:15 tempo osservato: Sereno Sereno 36 32 1015 vento: Nord SO 11.1
30 Agosto 2026 13:55 tempo osservato: Sereno Sereno 36 32 1016 vento: Nord N 11.1
30 Agosto 2026 13:35 tempo osservato: Sereno Sereno 35 36 1016 vento: Nord S/SO 11.1
30 Agosto 2026 13:15 tempo osservato: Sereno Sereno 35 36 1016 vento: Nord S/SO 18.5
30 Agosto 2026 12:55 tempo osservato: Sereno Sereno 34 38 1017 vento: Nord N 5.5
30 Agosto 2026 12:35 tempo osservato: Sereno Sereno 34 41 1017 vento: Nord N 9.3
30 Agosto 2026 12:15 tempo osservato: Sereno Sereno 33 46 1017 vento: Nord N 7.4
30 Agosto 2026 11:55 tempo osservato: Sereno Sereno 33 46 1017 vento: Nord N 11.1
30 Agosto 2026 11:35 tempo osservato: Sereno Sereno 32 52 1018 vento: Nord O/SO 11.1
30 Agosto 2026 11:15 tempo osservato: Sereno Sereno 32 52 1018 vento: Nord O/SO 9.3
30 Agosto 2026 10:55 tempo osservato: Sereno Sereno 31 62 1018 vento: Nord SO 7.4
30 Agosto 2026 10:35 tempo osservato: Sereno Sereno 30 66 1018 vento: Nord N 5.5
30 Agosto 2026 10:15 tempo osservato: Sereno Sereno 30 70 1018 vento: Nord S 13
30 Agosto 2026 09:55 tempo osservato: Sereno Sereno 29 74 1018 vento: Nord S/SO 13
30 Agosto 2026 09:35 tempo osservato: Sereno Sereno 28 78 1018 vento: Nord SO 14.8
30 Agosto 2026 09:15 tempo osservato: Sereno Sereno 28 78 1018 vento: Nord S/SO 11.1
30 Agosto 2026 08:55 tempo osservato: Sereno Sereno 27 83 1018 vento: Nord SO 9.3
30 Agosto 2026 08:35 tempo osservato: Sereno Sereno 26 88 1018 vento: Nord S 7.4
30 Agosto 2026 08:15 tempo osservato: Sereno Sereno 25 94 1017 vento: Nord S 9.3
30 Agosto 2026 07:55 tempo osservato: Sereno Sereno 25 94 1017 vento: Nord S/SE 7.4
30 Agosto 2026 07:35 tempo osservato: Sereno Sereno 24 100 1017 vento: Nord N 5.5
30 Agosto 2026 07:15 tempo osservato: Sereno Sereno 24 94 1017 vento: Nord N 0
30 Agosto 2026 06:55 tempo osservato: Sereno Sereno 24 94 1017 vento: Nord S/SE 7.4
30 Agosto 2026 06:35 tempo osservato: Sereno Sereno 24 94 1016 vento: Nord S/SE 7.4
30 Agosto 2026 06:15 tempo osservato: Sereno Sereno 24 94 1016 vento: Nord N 5.5
30 Agosto 2026 05:55 tempo osservato: Sereno Sereno 24 94 1016 vento: Nord N 5.5
30 Agosto 2026 05:35 tempo osservato: Sereno Sereno 24 94 1016 vento: Nord N 0
30 Agosto 2026 05:15 tempo osservato: Sereno Sereno 25 88 1016 vento: Nord N 5.5
30 Agosto 2026 04:55 tempo osservato: Sereno Sereno 25 88 1016 vento: Nord N 5.5
30 Agosto 2026 04:35 tempo osservato: Sereno Sereno 25 88 1016 vento: Nord SE 7.4
30 Agosto 2026 04:15 tempo osservato: Sereno Sereno 25 83 1016 vento: Nord N 0
30 Agosto 2026 03:55 tempo osservato: Sereno Sereno 25 83 1016 vento: Nord N 5.5
30 Agosto 2026 03:35 tempo osservato: Sereno Sereno 25 83 1016 vento: Nord N 5.5
30 Agosto 2026 03:15 tempo osservato: Sereno Sereno 26 78 1016 vento: Nord N 5.5
30 Agosto 2026 02:55 tempo osservato: Sereno Sereno 26 78 1016 vento: Nord N 0
30 Agosto 2026 02:35 tempo osservato: Sereno Sereno 26 73 1016 vento: Nord S/SE 7.4
30 Agosto 2026 02:15 tempo osservato: Sereno Sereno 27 69 1016 vento: Nord N 5.5
30 Agosto 2026 01:55 tempo osservato: Sereno Sereno 27 69 1016 vento: Nord N 0
30 Agosto 2026 01:35 tempo osservato: Poco Nuvoloso Poco Nuvoloso 28 61 1016 vento: Nord S/SE 7.4